sensor_id;sensor_type;location;lat;lon;timestamp;P1;durP1;ratioP1;P2;durP2;ratioP2
15408;SDS011;7803;48.130;13.788;2023-08-20T00:02:48;7.68;;;6.97;;
15408;SDS011;7803;48.130;13.788;2023-08-20T00:05:57;8.40;;;7.70;;
15408;SDS011;7803;48.130;13.788;2023-08-20T00:08:59;8.15;;;7.47;;
15408;SDS011;7803;48.130;13.788;2023-08-20T00:12:02;7.75;;;7.05;;
15408;SDS011;7803;48.130;13.788;2023-08-20T00:15:05;7.70;;;7.10;;
15408;SDS011;7803;48.130;13.788;2023-08-20T00:18:10;7.88;;;7.28;;
15408;SDS011;7803;48.130;13.788;2023-08-20T00:21:13;8.18;;;7.40;;
15408;SDS011;7803;48.130;13.788;2023-08-20T00:24:16;8.50;;;7.80;;
15408;SDS011;7803;48.130;13.788;2023-08-20T00:27:18;8.05;;;7.38;;
15408;SDS011;7803;48.130;13.788;2023-08-20T00:30:21;7.90;;;7.30;;
15408;SDS011;7803;48.130;13.788;2023-08-20T00:33:24;8.15;;;7.47;;
15408;SDS011;7803;48.130;13.788;2023-08-20T00:36:26;8.40;;;7.70;;
15408;SDS011;7803;48.130;13.788;2023-08-20T00:39:28;8.45;;;7.72;;
15408;SDS011;7803;48.130;13.788;2023-08-20T00:42:30;7.70;;;7.10;;
15408;SDS011;7803;48.130;13.788;2023-08-20T00:45:32;7.53;;;6.82;;
15408;SDS011;7803;48.130;13.788;2023-08-20T00:48:37;7.85;;;7.20;;
15408;SDS011;7803;48.130;13.788;2023-08-20T00:51:39;7.60;;;7.00;;
15408;SDS011;7803;48.130;13.788;2023-08-20T00:54:41;8.48;;;7.68;;
15408;SDS011;7803;48.130;13.788;2023-08-20T00:57:45;7.90;;;7.10;;
15408;SDS011;7803;48.130;13.788;2023-08-20T01:00:47;7.72;;;7.13;;
15408;SDS011;7803;48.130;13.788;2023-08-20T01:03:50;7.68;;;7.05;;
15408;SDS011;7803;48.130;13.788;2023-08-20T01:06:54;7.90;;;7.30;;
15408;SDS011;7803;48.130;13.788;2023-08-20T01:10:14;7.80;;;7.20;;
15408;SDS011;7803;48.130;13.788;2023-08-20T01:13:20;6.88;;;6.38;;
15408;SDS011;7803;48.130;13.788;2023-08-20T01:16:22;7.55;;;6.95;;
15408;SDS011;7803;48.130;13.788;2023-08-20T01:19:26;8.20;;;7.38;;
15408;SDS011;7803;48.130;13.788;2023-08-20T01:22:38;8.00;;;7.30;;
15408;SDS011;7803;48.130;13.788;2023-08-20T01:26:07;7.72;;;7.03;;
15408;SDS011;7803;48.130;13.788;2023-08-20T01:29:23;8.05;;;7.32;;
15408;SDS011;7803;48.130;13.788;2023-08-20T01:32:27;7.97;;;7.28;;
15408;SDS011;7803;48.130;13.788;2023-08-20T01:35:29;7.95;;;7.25;;
15408;SDS011;7803;48.130;13.788;2023-08-20T01:38:31;8.70;;;7.80;;
15408;SDS011;7803;48.130;13.788;2023-08-20T01:41:33;7.80;;;7.20;;
15408;SDS011;7803;48.130;13.788;2023-08-20T01:44:37;8.18;;;7.38;;
15408;SDS011;7803;48.130;13.788;2023-08-20T01:47:39;7.63;;;7.03;;
15408;SDS011;7803;48.130;13.788;2023-08-20T01:50:41;7.47;;;6.88;;
15408;SDS011;7803;48.130;13.788;2023-08-20T01:53:43;7.78;;;7.18;;
15408;SDS011;7803;48.130;13.788;2023-08-20T01:56:45;7.47;;;6.88;;
15408;SDS011;7803;48.130;13.788;2023-08-20T01:59:49;7.45;;;6.85;;
15408;SDS011;7803;48.130;13.788;2023-08-20T02:02:51;7.85;;;7.15;;
15408;SDS011;7803;48.130;13.788;2023-08-20T02:05:53;7.47;;;6.85;;
15408;SDS011;7803;48.130;13.788;2023-08-20T02:08:55;7.72;;;7.03;;
15408;SDS011;7803;48.130;13.788;2023-08-20T02:11:57;7.72;;;7.13;;
15408;SDS011;7803;48.130;13.788;2023-08-20T02:15:01;8.07;;;7.38;;
15408;SDS011;7803;48.130;13.788;2023-08-20T02:18:04;7.45;;;6.85;;
15408;SDS011;7803;48.130;13.788;2023-08-20T02:21:06;7.72;;;7.10;;
15408;SDS011;7803;48.130;13.788;2023-08-20T02:24:08;7.55;;;6.95;;
15408;SDS011;7803;48.130;13.788;2023-08-20T02:27:10;8.43;;;7.57;;
15408;SDS011;7803;48.130;13.788;2023-08-20T02:30:13;8.07;;;7.38;;
15408;SDS011;7803;48.130;13.788;2023-08-20T02:33:15;8.40;;;7.70;;
15408;SDS011;7803;48.130;13.788;2023-08-20T02:36:17;7.55;;;6.95;;
15408;SDS011;7803;48.130;13.788;2023-08-20T02:39:20;7.93;;;7.22;;
15408;SDS011;7803;48.130;13.788;2023-08-20T02:42:22;7.65;;;7.05;;
15408;SDS011;7803;48.130;13.788;2023-08-20T02:45:38;8.13;;;7.50;;
15408;SDS011;7803;48.130;13.788;2023-08-20T02:48:41;7.82;;;7.18;;
15408;SDS011;7803;48.130;13.788;2023-08-20T02:51:43;7.75;;;7.10;;
15408;SDS011;7803;48.130;13.788;2023-08-20T02:54:45;7.55;;;6.88;;
15408;SDS011;7803;48.130;13.788;2023-08-20T02:57:47;7.68;;;7.03;;
15408;SDS011;7803;48.130;13.788;2023-08-20T03:00:50;8.00;;;7.30;;
15408;SDS011;7803;48.130;13.788;2023-08-20T03:03:53;7.43;;;6.82;;
15408;SDS011;7803;48.130;13.788;2023-08-20T03:06:55;7.25;;;6.75;;
15408;SDS011;7803;48.130;13.788;2023-08-20T03:09:57;6.88;;;6.38;;
15408;SDS011;7803;48.130;13.788;2023-08-20T03:12:59;7.47;;;6.75;;
15408;SDS011;7803;48.130;13.788;2023-08-20T03:16:03;7.20;;;6.70;;
15408;SDS011;7803;48.130;13.788;2023-08-20T03:19:05;7.80;;;7.10;;
15408;SDS011;7803;48.130;13.788;2023-08-20T03:22:07;7.40;;;6.80;;
15408;SDS011;7803;48.130;13.788;2023-08-20T03:25:18;7.85;;;7.25;;
15408;SDS011;7803;48.130;13.788;2023-08-20T03:28:21;8.05;;;7.40;;
15408;SDS011;7803;48.130;13.788;2023-08-20T03:31:24;8.32;;;7.47;;
15408;SDS011;7803;48.130;13.788;2023-08-20T03:34:26;7.40;;;6.80;;
15408;SDS011;7803;48.130;13.788;2023-08-20T03:37:28;7.40;;;6.80;;
15408;SDS011;7803;48.130;13.788;2023-08-20T03:40:30;7.32;;;6.72;;
15408;SDS011;7803;48.130;13.788;2023-08-20T03:43:32;7.60;;;6.90;;
15408;SDS011;7803;48.130;13.788;2023-08-20T03:46:35;6.82;;;6.22;;
15408;SDS011;7803;48.130;13.788;2023-08-20T03:49:37;8.10;;;7.30;;
15408;SDS011;7803;48.130;13.788;2023-08-20T03:52:39;7.88;;;7.20;;
15408;SDS011;7803;48.130;13.788;2023-08-20T03:55:41;9.15;;;6.90;;
15408;SDS011;7803;48.130;13.788;2023-08-20T03:58:48;7.50;;;6.88;;
15408;SDS011;7803;48.130;13.788;2023-08-20T04:01:51;7.75;;;7.10;;
15408;SDS011;7803;48.130;13.788;2023-08-20T04:04:53;7.75;;;7.15;;
15408;SDS011;7803;48.130;13.788;2023-08-20T04:07:55;7.45;;;6.80;;
15408;SDS011;7803;48.130;13.788;2023-08-20T04:10:57;7.30;;;6.65;;
15408;SDS011;7803;48.130;13.788;2023-08-20T04:13:59;6.85;;;6.30;;
15408;SDS011;7803;48.130;13.788;2023-08-20T04:17:03;7.22;;;6.63;;
15408;SDS011;7803;48.130;13.788;2023-08-20T04:20:06;7.45;;;6.85;;
15408;SDS011;7803;48.130;13.788;2023-08-20T04:23:09;7.63;;;6.95;;
15408;SDS011;7803;48.130;13.788;2023-08-20T04:26:11;7.50;;;6.70;;
15408;SDS011;7803;48.130;13.788;2023-08-20T04:29:14;7.80;;;7.10;;
15408;SDS011;7803;48.130;13.788;2023-08-20T04:32:17;7.60;;;6.93;;
15408;SDS011;7803;48.130;13.788;2023-08-20T04:35:19;7.55;;;6.85;;
15408;SDS011;7803;48.130;13.788;2023-08-20T04:38:22;7.05;;;6.45;;
15408;SDS011;7803;48.130;13.788;2023-08-20T04:41:24;7.50;;;6.80;;
15408;SDS011;7803;48.130;13.788;2023-08-20T04:44:26;7.75;;;6.97;;
15408;SDS011;7803;48.130;13.788;2023-08-20T04:47:29;7.63;;;7.03;;
15408;SDS011;7803;48.130;13.788;2023-08-20T04:50:32;7.68;;;6.88;;
15408;SDS011;7803;48.130;13.788;2023-08-20T04:53:35;8.05;;;7.30;;
15408;SDS011;7803;48.130;13.788;2023-08-20T04:56:37;8.63;;;7.60;;
15408;SDS011;7803;48.130;13.788;2023-08-20T04:59:38;8.18;;;7.47;;
15408;SDS011;7803;48.130;13.788;2023-08-20T05:02:44;8.02;;;7.30;;
15408;SDS011;7803;48.130;13.788;2023-08-20T05:05:48;8.38;;;7.68;;
15408;SDS011;7803;48.130;13.788;2023-08-20T05:08:50;8.88;;;8.07;;
15408;SDS011;7803;48.130;13.788;2023-08-20T05:11:52;8.48;;;7.68;;
15408;SDS011;7803;48.130;13.788;2023-08-20T05:14:54;8.75;;;7.93;;
15408;SDS011;7803;48.130;13.788;2023-08-20T05:17:57;8.32;;;7.63;;
15408;SDS011;7803;48.130;13.788;2023-08-20T05:20:59;8.40;;;7.60;;
15408;SDS011;7803;48.130;13.788;2023-08-20T05:24:02;8.68;;;7.97;;
15408;SDS011;7803;48.130;13.788;2023-08-20T05:27:07;8.65;;;7.95;;
15408;SDS011;7803;48.130;13.788;2023-08-20T05:30:10;8.90;;;8.10;;
15408;SDS011;7803;48.130;13.788;2023-08-20T05:33:14;8.50;;;7.80;;
15408;SDS011;7803;48.130;13.788;2023-08-20T05:36:16;8.93;;;8.13;;
15408;SDS011;7803;48.130;13.788;2023-08-20T05:39:18;8.70;;;8.00;;
15408;SDS011;7803;48.130;13.788;2023-08-20T05:42:20;9.20;;;8.40;;
15408;SDS011;7803;48.130;13.788;2023-08-20T05:45:22;9.18;;;8.38;;
15408;SDS011;7803;48.130;13.788;2023-08-20T05:48:25;8.90;;;8.13;;
15408;SDS011;7803;48.130;13.788;2023-08-20T05:51:27;8.68;;;7.97;;
15408;SDS011;7803;48.130;13.788;2023-08-20T05:54:29;8.50;;;7.70;;
15408;SDS011;7803;48.130;13.788;2023-08-20T05:57:31;9.00;;;8.18;;
15408;SDS011;7803;48.130;13.788;2023-08-20T06:00:33;8.88;;;8.18;;
15408;SDS011;7803;48.130;13.788;2023-08-20T06:03:36;8.98;;;8.18;;
15408;SDS011;7803;48.130;13.788;2023-08-20T06:06:38;8.65;;;7.93;;
15408;SDS011;7803;48.130;13.788;2023-08-20T06:09:41;7.95;;;7.35;;
15408;SDS011;7803;48.130;13.788;2023-08-20T06:12:43;8.57;;;7.85;;
15408;SDS011;7803;48.130;13.788;2023-08-20T06:15:45;8.30;;;7.50;;
15408;SDS011;7803;48.130;13.788;2023-08-20T06:18:49;7.90;;;7.20;;
15408;SDS011;7803;48.130;13.788;2023-08-20T06:21:51;8.75;;;7.63;;
15408;SDS011;7803;48.130;13.788;2023-08-20T06:24:53;8.30;;;7.43;;
15408;SDS011;7803;48.130;13.788;2023-08-20T06:27:55;7.90;;;7.28;;
15408;SDS011;7803;48.130;13.788;2023-08-20T06:30:57;7.88;;;7.18;;
15408;SDS011;7803;48.130;13.788;2023-08-20T06:34:00;12.02;;;6.90;;
15408;SDS011;7803;48.130;13.788;2023-08-20T06:37:02;7.68;;;6.93;;
15408;SDS011;7803;48.130;13.788;2023-08-20T06:40:05;8.02;;;7.32;;
15408;SDS011;7803;48.130;13.788;2023-08-20T06:43:07;7.40;;;6.80;;
15408;SDS011;7803;48.130;13.788;2023-08-20T06:46:09;7.15;;;6.55;;
15408;SDS011;7803;48.130;13.788;2023-08-20T06:49:12;7.35;;;6.65;;
15408;SDS011;7803;48.130;13.788;2023-08-20T06:52:14;7.68;;;6.97;;
15408;SDS011;7803;48.130;13.788;2023-08-20T06:55:16;7.68;;;6.97;;
15408;SDS011;7803;48.130;13.788;2023-08-20T06:58:19;8.35;;;7.65;;
15408;SDS011;7803;48.130;13.788;2023-08-20T07:01:20;8.00;;;7.30;;
15408;SDS011;7803;48.130;13.788;2023-08-20T07:04:24;8.38;;;7.57;;
15408;SDS011;7803;48.130;13.788;2023-08-20T07:07:26;7.70;;;6.90;;
15408;SDS011;7803;48.130;13.788;2023-08-20T07:10:28;8.65;;;6.63;;
15408;SDS011;7803;48.130;13.788;2023-08-20T07:13:30;7.88;;;7.18;;
15408;SDS011;7803;48.130;13.788;2023-08-20T07:16:32;7.60;;;6.90;;
15408;SDS011;7803;48.130;13.788;2023-08-20T07:19:36;7.47;;;6.80;;
15408;SDS011;7803;48.130;13.788;2023-08-20T07:22:38;7.80;;;7.10;;
15408;SDS011;7803;48.130;13.788;2023-08-20T07:25:40;7.60;;;6.90;;
15408;SDS011;7803;48.130;13.788;2023-08-20T07:28:44;7.45;;;6.75;;
15408;SDS011;7803;48.130;13.788;2023-08-20T07:31:59;7.53;;;6.93;;
15408;SDS011;7803;48.130;13.788;2023-08-20T07:35:05;8.00;;;7.30;;
15408;SDS011;7803;48.130;13.788;2023-08-20T07:38:08;7.75;;;7.05;;
15408;SDS011;7803;48.130;13.788;2023-08-20T07:41:10;7.65;;;6.95;;
15408;SDS011;7803;48.130;13.788;2023-08-20T07:44:12;7.07;;;6.47;;
15408;SDS011;7803;48.130;13.788;2023-08-20T07:47:15;7.70;;;7.05;;
15408;SDS011;7803;48.130;13.788;2023-08-20T07:50:18;7.85;;;7.15;;
15408;SDS011;7803;48.130;13.788;2023-08-20T07:53:20;7.57;;;6.97;;
15408;SDS011;7803;48.130;13.788;2023-08-20T07:56:22;8.23;;;7.43;;
15408;SDS011;7803;48.130;13.788;2023-08-20T07:59:24;8.10;;;7.30;;
15408;SDS011;7803;48.130;13.788;2023-08-20T08:02:26;8.60;;;7.80;;
15408;SDS011;7803;48.130;13.788;2023-08-20T08:05:29;10.75;;;8.20;;
15408;SDS011;7803;48.130;13.788;2023-08-20T08:08:31;8.73;;;7.93;;
15408;SDS011;7803;48.130;13.788;2023-08-20T08:11:33;8.90;;;7.90;;
15408;SDS011;7803;48.130;13.788;2023-08-20T08:14:35;10.68;;;8.20;;
15408;SDS011;7803;48.130;13.788;2023-08-20T08:17:37;10.13;;;7.70;;
15408;SDS011;7803;48.130;13.788;2023-08-20T08:20:41;9.18;;;8.02;;
15408;SDS011;7803;48.130;13.788;2023-08-20T08:23:43;8.45;;;7.72;;
15408;SDS011;7803;48.130;13.788;2023-08-20T08:26:53;12.18;;;8.38;;
15408;SDS011;7803;48.130;13.788;2023-08-20T08:29:55;8.98;;;7.78;;
15408;SDS011;7803;48.130;13.788;2023-08-20T08:32:58;9.10;;;8.20;;
15408;SDS011;7803;48.130;13.788;2023-08-20T08:36:01;11.88;;;8.35;;
15408;SDS011;7803;48.130;13.788;2023-08-20T08:39:03;9.68;;;8.70;;
15408;SDS011;7803;48.130;13.788;2023-08-20T08:42:05;8.50;;;7.72;;
15408;SDS011;7803;48.130;13.788;2023-08-20T08:45:09;10.13;;;8.00;;
15408;SDS011;7803;48.130;13.788;2023-08-20T08:48:11;9.38;;;8.40;;
15408;SDS011;7803;48.130;13.788;2023-08-20T08:51:15;9.13;;;8.20;;
15408;SDS011;7803;48.130;13.788;2023-08-20T08:54:18;8.60;;;7.80;;
15408;SDS011;7803;48.130;13.788;2023-08-20T08:57:22;8.93;;;8.02;;
15408;SDS011;7803;48.130;13.788;2023-08-20T09:00:24;9.45;;;8.57;;
15408;SDS011;7803;48.130;13.788;2023-08-20T09:03:26;9.10;;;8.30;;
15408;SDS011;7803;48.130;13.788;2023-08-20T09:06:29;8.80;;;8.00;;
15408;SDS011;7803;48.130;13.788;2023-08-20T09:09:46;8.52;;;7.75;;
15408;SDS011;7803;48.130;13.788;2023-08-20T09:12:49;8.70;;;7.95;;
15408;SDS011;7803;48.130;13.788;2023-08-20T09:15:51;9.48;;;8.57;;
15408;SDS011;7803;48.130;13.788;2023-08-20T09:18:54;8.82;;;8.02;;
15408;SDS011;7803;48.130;13.788;2023-08-20T09:21:57;8.85;;;8.05;;
15408;SDS011;7803;48.130;13.788;2023-08-20T09:25:00;8.73;;;7.90;;
15408;SDS011;7803;48.130;13.788;2023-08-20T09:28:03;8.93;;;8.02;;
15408;SDS011;7803;48.130;13.788;2023-08-20T09:31:05;8.40;;;7.70;;
15408;SDS011;7803;48.130;13.788;2023-08-20T09:34:11;9.60;;;8.02;;
15408;SDS011;7803;48.130;13.788;2023-08-20T09:37:15;8.95;;;8.15;;
15408;SDS011;7803;48.130;13.788;2023-08-20T09:40:19;9.13;;;8.30;;
15408;SDS011;7803;48.130;13.788;2023-08-20T09:43:23;9.35;;;8.40;;
15408;SDS011;7803;48.130;13.788;2023-08-20T09:46:31;9.07;;;8.27;;
15408;SDS011;7803;48.130;13.788;2023-08-20T09:49:36;8.77;;;7.78;;
15408;SDS011;7803;48.130;13.788;2023-08-20T09:52:43;8.85;;;8.05;;
15408;SDS011;7803;48.130;13.788;2023-08-20T09:55:50;9.32;;;8.38;;
15408;SDS011;7803;48.130;13.788;2023-08-20T09:58:53;8.93;;;8.18;;
15408;SDS011;7803;48.130;13.788;2023-08-20T10:01:56;9.23;;;8.20;;
15408;SDS011;7803;48.130;13.788;2023-08-20T10:04:58;9.40;;;8.57;;
15408;SDS011;7803;48.130;13.788;2023-08-20T10:08:04;9.13;;;8.10;;
15408;SDS011;7803;48.130;13.788;2023-08-20T10:11:06;9.45;;;8.50;;
15408;SDS011;7803;48.130;13.788;2023-08-20T10:14:08;9.20;;;8.30;;
15408;SDS011;7803;48.130;13.788;2023-08-20T10:17:11;9.20;;;8.27;;
15408;SDS011;7803;48.130;13.788;2023-08-20T10:20:15;8.70;;;8.00;;
15408;SDS011;7803;48.130;13.788;2023-08-20T10:23:21;9.40;;;8.50;;
15408;SDS011;7803;48.130;13.788;2023-08-20T10:26:24;9.07;;;8.32;;
15408;SDS011;7803;48.130;13.788;2023-08-20T10:29:34;8.75;;;8.05;;
15408;SDS011;7803;48.130;13.788;2023-08-20T10:32:46;8.77;;;7.97;;
15408;SDS011;7803;48.130;13.788;2023-08-20T10:35:49;8.82;;;8.10;;
15408;SDS011;7803;48.130;13.788;2023-08-20T10:38:54;9.32;;;8.43;;
15408;SDS011;7803;48.130;13.788;2023-08-20T10:42:09;9.18;;;8.30;;
15408;SDS011;7803;48.130;13.788;2023-08-20T10:45:25;9.32;;;8.50;;
15408;SDS011;7803;48.130;13.788;2023-08-20T10:48:27;8.93;;;8.13;;
15408;SDS011;7803;48.130;13.788;2023-08-20T10:51:31;9.25;;;8.45;;
15408;SDS011;7803;48.130;13.788;2023-08-20T10:54:36;8.93;;;8.15;;
15408;SDS011;7803;48.130;13.788;2023-08-20T10:57:39;9.00;;;8.20;;
15408;SDS011;7803;48.130;13.788;2023-08-20T11:00:41;8.88;;;8.18;;
15408;SDS011;7803;48.130;13.788;2023-08-20T11:03:43;9.20;;;8.50;;
15408;SDS011;7803;48.130;13.788;2023-08-20T11:06:46;9.60;;;8.70;;
15408;SDS011;7803;48.130;13.788;2023-08-20T11:09:52;9.20;;;8.30;;
15408;SDS011;7803;48.130;13.788;2023-08-20T11:12:56;9.40;;;8.50;;
15408;SDS011;7803;48.130;13.788;2023-08-20T11:15:58;9.32;;;8.52;;
15408;SDS011;7803;48.130;13.788;2023-08-20T11:19:00;9.30;;;8.50;;
15408;SDS011;7803;48.130;13.788;2023-08-20T11:22:05;9.15;;;8.35;;
15408;SDS011;7803;48.130;13.788;2023-08-20T11:25:11;8.80;;;8.10;;
15408;SDS011;7803;48.130;13.788;2023-08-20T11:28:14;9.43;;;8.52;;
15408;SDS011;7803;48.130;13.788;2023-08-20T11:31:16;9.07;;;8.27;;
15408;SDS011;7803;48.130;13.788;2023-08-20T11:34:18;8.77;;;8.00;;
15408;SDS011;7803;48.130;13.788;2023-08-20T11:37:20;9.18;;;8.40;;
15408;SDS011;7803;48.130;13.788;2023-08-20T11:40:24;9.20;;;8.40;;
15408;SDS011;7803;48.130;13.788;2023-08-20T11:43:27;9.05;;;8.25;;
15408;SDS011;7803;48.130;13.788;2023-08-20T11:46:29;8.90;;;8.10;;
15408;SDS011;7803;48.130;13.788;2023-08-20T11:49:31;8.77;;;8.05;;
15408;SDS011;7803;48.130;13.788;2023-08-20T11:52:33;8.77;;;8.07;;
15408;SDS011;7803;48.130;13.788;2023-08-20T11:55:38;8.70;;;7.90;;
15408;SDS011;7803;48.130;13.788;2023-08-20T11:58:42;9.85;;;8.93;;
15408;SDS011;7803;48.130;13.788;2023-08-20T12:01:50;9.23;;;8.43;;
15408;SDS011;7803;48.130;13.788;2023-08-20T12:04:55;8.60;;;7.90;;
15408;SDS011;7803;48.130;13.788;2023-08-20T12:07:58;9.02;;;8.23;;
15408;SDS011;7803;48.130;13.788;2023-08-20T12:11:03;9.10;;;8.30;;
15408;SDS011;7803;48.130;13.788;2023-08-20T12:14:05;9.40;;;8.70;;
15408;SDS011;7803;48.130;13.788;2023-08-20T12:17:07;9.00;;;8.30;;
15408;SDS011;7803;48.130;13.788;2023-08-20T12:20:09;8.82;;;8.07;;
15408;SDS011;7803;48.130;13.788;2023-08-20T12:23:12;9.48;;;8.68;;
15408;SDS011;7803;48.130;13.788;2023-08-20T12:26:16;8.98;;;8.18;;
15408;SDS011;7803;48.130;13.788;2023-08-20T12:29:18;9.43;;;8.60;;
15408;SDS011;7803;48.130;13.788;2023-08-20T12:32:20;8.65;;;7.93;;
15408;SDS011;7803;48.130;13.788;2023-08-20T12:35:22;8.50;;;7.80;;
15408;SDS011;7803;48.130;13.788;2023-08-20T12:38:24;8.82;;;8.13;;
15408;SDS011;7803;48.130;13.788;2023-08-20T12:41:27;8.90;;;8.20;;
15408;SDS011;7803;48.130;13.788;2023-08-20T12:44:29;9.23;;;8.43;;
15408;SDS011;7803;48.130;13.788;2023-08-20T12:47:31;9.27;;;8.48;;
15408;SDS011;7803;48.130;13.788;2023-08-20T12:50:33;8.73;;;8.02;;
15408;SDS011;7803;48.130;13.788;2023-08-20T12:53:35;8.90;;;8.10;;
15408;SDS011;7803;48.130;13.788;2023-08-20T12:56:39;8.60;;;7.90;;
15408;SDS011;7803;48.130;13.788;2023-08-20T12:59:41;8.95;;;8.25;;
15408;SDS011;7803;48.130;13.788;2023-08-20T13:02:44;8.90;;;8.20;;
15408;SDS011;7803;48.130;13.788;2023-08-20T13:05:48;8.52;;;7.82;;
15408;SDS011;7803;48.130;13.788;2023-08-20T13:08:51;8.90;;;8.10;;
15408;SDS011;7803;48.130;13.788;2023-08-20T13:11:56;9.25;;;8.45;;
15408;SDS011;7803;48.130;13.788;2023-08-20T13:15:02;8.73;;;8.02;;
15408;SDS011;7803;48.130;13.788;2023-08-20T13:18:06;8.88;;;8.05;;
15408;SDS011;7803;48.130;13.788;2023-08-20T13:21:09;8.68;;;7.97;;
15408;SDS011;7803;48.130;13.788;2023-08-20T13:24:11;8.65;;;7.95;;
15408;SDS011;7803;48.130;13.788;2023-08-20T13:27:15;8.60;;;7.80;;
15408;SDS011;7803;48.130;13.788;2023-08-20T13:30:18;8.43;;;7.72;;
15408;SDS011;7803;48.130;13.788;2023-08-20T13:33:20;9.65;;;8.73;;
15408;SDS011;7803;48.130;13.788;2023-08-20T13:36:22;8.18;;;7.57;;
15408;SDS011;7803;48.130;13.788;2023-08-20T13:39:25;8.85;;;8.15;;
15408;SDS011;7803;48.130;13.788;2023-08-20T13:42:29;8.55;;;7.85;;
15408;SDS011;7803;48.130;13.788;2023-08-20T13:45:32;8.65;;;7.95;;
15408;SDS011;7803;48.130;13.788;2023-08-20T13:48:35;8.45;;;7.75;;
15408;SDS011;7803;48.130;13.788;2023-08-20T13:51:38;8.77;;;8.00;;
15408;SDS011;7803;48.130;13.788;2023-08-20T13:54:40;8.77;;;8.07;;
15408;SDS011;7803;48.130;13.788;2023-08-20T13:57:44;8.70;;;8.00;;
15408;SDS011;7803;48.130;13.788;2023-08-20T14:00:47;8.82;;;8.13;;
15408;SDS011;7803;48.130;13.788;2023-08-20T14:03:51;9.05;;;8.32;;
15408;SDS011;7803;48.130;13.788;2023-08-20T14:06:54;8.63;;;7.93;;
15408;SDS011;7803;48.130;13.788;2023-08-20T14:09:57;8.93;;;8.23;;
15408;SDS011;7803;48.130;13.788;2023-08-20T14:13:02;8.50;;;7.80;;
15408;SDS011;7803;48.130;13.788;2023-08-20T14:16:06;8.65;;;7.95;;
15408;SDS011;7803;48.130;13.788;2023-08-20T14:19:09;8.45;;;7.80;;
15408;SDS011;7803;48.130;13.788;2023-08-20T14:22:12;8.18;;;7.47;;
15408;SDS011;7803;48.130;13.788;2023-08-20T14:25:15;8.52;;;7.82;;
15408;SDS011;7803;48.130;13.788;2023-08-20T14:28:19;8.23;;;7.57;;
15408;SDS011;7803;48.130;13.788;2023-08-20T14:31:21;8.32;;;7.65;;
15408;SDS011;7803;48.130;13.788;2023-08-20T14:34:23;8.50;;;7.90;;
15408;SDS011;7803;48.130;13.788;2023-08-20T14:37:26;8.20;;;7.60;;
15408;SDS011;7803;48.130;13.788;2023-08-20T14:40:29;8.63;;;7.93;;
15408;SDS011;7803;48.130;13.788;2023-08-20T14:43:35;8.68;;;7.97;;
15408;SDS011;7803;48.130;13.788;2023-08-20T14:46:38;8.32;;;7.63;;
15408;SDS011;7803;48.130;13.788;2023-08-20T14:49:40;8.40;;;7.80;;
15408;SDS011;7803;48.130;13.788;2023-08-20T14:52:42;8.35;;;7.65;;
15408;SDS011;7803;48.130;13.788;2023-08-20T14:55:48;8.20;;;7.60;;
15408;SDS011;7803;48.130;13.788;2023-08-20T14:58:53;8.80;;;8.10;;
15408;SDS011;7803;48.130;13.788;2023-08-20T15:01:56;8.57;;;7.85;;
15408;SDS011;7803;48.130;13.788;2023-08-20T15:04:58;7.97;;;7.30;;
15408;SDS011;7803;48.130;13.788;2023-08-20T15:08:01;8.35;;;7.65;;
15408;SDS011;7803;48.130;13.788;2023-08-20T15:11:04;8.63;;;7.82;;
15408;SDS011;7803;48.130;13.788;2023-08-20T15:14:08;8.65;;;7.93;;
15408;SDS011;7803;48.130;13.788;2023-08-20T15:17:11;8.40;;;7.70;;
15408;SDS011;7803;48.130;13.788;2023-08-20T15:20:13;8.50;;;7.80;;
15408;SDS011;7803;48.130;13.788;2023-08-20T15:23:16;8.27;;;7.57;;
15408;SDS011;7803;48.130;13.788;2023-08-20T15:26:18;8.38;;;7.68;;
15408;SDS011;7803;48.130;13.788;2023-08-20T15:29:22;8.43;;;7.60;;
15408;SDS011;7803;48.130;13.788;2023-08-20T15:32:24;8.10;;;7.40;;
15408;SDS011;7803;48.130;13.788;2023-08-20T15:35:28;8.50;;;7.80;;
15408;SDS011;7803;48.130;13.788;2023-08-20T15:38:31;8.13;;;7.50;;
15408;SDS011;7803;48.130;13.788;2023-08-20T15:41:35;8.15;;;7.45;;
15408;SDS011;7803;48.130;13.788;2023-08-20T15:44:39;8.93;;;8.05;;
15408;SDS011;7803;48.130;13.788;2023-08-20T15:47:42;8.50;;;7.72;;
15408;SDS011;7803;48.130;13.788;2023-08-20T15:50:45;8.38;;;7.68;;
15408;SDS011;7803;48.130;13.788;2023-08-20T15:53:47;8.63;;;7.65;;
15408;SDS011;7803;48.130;13.788;2023-08-20T15:56:49;8.18;;;7.47;;
15408;SDS011;7803;48.130;13.788;2023-08-20T15:59:53;7.90;;;7.30;;
15408;SDS011;7803;48.130;13.788;2023-08-20T16:02:56;8.27;;;7.47;;
15408;SDS011;7803;48.130;13.788;2023-08-20T16:05:59;8.57;;;7.78;;
15408;SDS011;7803;48.130;13.788;2023-08-20T16:09:02;7.97;;;7.38;;
15408;SDS011;7803;48.130;13.788;2023-08-20T16:12:08;8.35;;;7.55;;
15408;SDS011;7803;48.130;13.788;2023-08-20T16:15:13;8.10;;;7.40;;
15408;SDS011;7803;48.130;13.788;2023-08-20T16:18:15;7.78;;;7.18;;
15408;SDS011;7803;48.130;13.788;2023-08-20T16:21:18;8.10;;;7.30;;
15408;SDS011;7803;48.130;13.788;2023-08-20T16:24:22;8.15;;;7.45;;
15408;SDS011;7803;48.130;13.788;2023-08-20T16:27:25;7.63;;;7.03;;
15408;SDS011;7803;48.130;13.788;2023-08-20T16:30:29;7.78;;;7.18;;
15408;SDS011;7803;48.130;13.788;2023-08-20T16:33:32;7.72;;;7.05;;
15408;SDS011;7803;48.130;13.788;2023-08-20T16:36:34;7.72;;;7.13;;
15408;SDS011;7803;48.130;13.788;2023-08-20T16:39:37;7.65;;;7.00;;
15408;SDS011;7803;48.130;13.788;2023-08-20T16:42:41;7.90;;;7.20;;
15408;SDS011;7803;48.130;13.788;2023-08-20T16:45:45;7.80;;;7.10;;
15408;SDS011;7803;48.130;13.788;2023-08-20T16:48:48;7.85;;;7.15;;
15408;SDS011;7803;48.130;13.788;2023-08-20T16:51:51;8.13;;;7.43;;
15408;SDS011;7803;48.130;13.788;2023-08-20T16:54:55;7.90;;;7.20;;
15408;SDS011;7803;48.130;13.788;2023-08-20T16:57:58;7.97;;;7.22;;
15408;SDS011;7803;48.130;13.788;2023-08-20T17:01:03;8.00;;;7.30;;
15408;SDS011;7803;48.130;13.788;2023-08-20T17:04:07;7.75;;;7.15;;
15408;SDS011;7803;48.130;13.788;2023-08-20T17:07:10;8.07;;;7.40;;
15408;SDS011;7803;48.130;13.788;2023-08-20T17:10:13;8.32;;;7.53;;
15408;SDS011;7803;48.130;13.788;2023-08-20T17:13:17;7.55;;;6.95;;
15408;SDS011;7803;48.130;13.788;2023-08-20T17:16:22;8.07;;;7.38;;
15408;SDS011;7803;48.130;13.788;2023-08-20T17:19:26;7.38;;;6.78;;
15408;SDS011;7803;48.130;13.788;2023-08-20T17:22:29;7.40;;;6.80;;
15408;SDS011;7803;48.130;13.788;2023-08-20T17:25:33;8.35;;;7.30;;
15408;SDS011;7803;48.130;13.788;2023-08-20T17:28:36;7.93;;;7.25;;
15408;SDS011;7803;48.130;13.788;2023-08-20T17:31:41;7.80;;;7.20;;
15408;SDS011;7803;48.130;13.788;2023-08-20T17:34:44;7.68;;;7.07;;
15408;SDS011;7803;48.130;13.788;2023-08-20T17:37:48;7.55;;;6.95;;
15408;SDS011;7803;48.130;13.788;2023-08-20T17:40:51;7.82;;;7.13;;
15408;SDS011;7803;48.130;13.788;2023-08-20T17:43:55;8.10;;;7.50;;
15408;SDS011;7803;48.130;13.788;2023-08-20T17:47:00;7.82;;;7.10;;
15408;SDS011;7803;48.130;13.788;2023-08-20T17:50:04;7.43;;;6.82;;
15408;SDS011;7803;48.130;13.788;2023-08-20T17:53:09;8.32;;;7.53;;
15408;SDS011;7803;48.130;13.788;2023-08-20T17:56:12;8.02;;;7.32;;
15408;SDS011;7803;48.130;13.788;2023-08-20T17:59:17;8.05;;;7.35;;
15408;SDS011;7803;48.130;13.788;2023-08-20T18:02:22;8.00;;;7.32;;
15408;SDS011;7803;48.130;13.788;2023-08-20T18:05:26;7.75;;;7.15;;
15408;SDS011;7803;48.130;13.788;2023-08-20T18:08:30;7.97;;;7.28;;
15408;SDS011;7803;48.130;13.788;2023-08-20T18:11:33;8.00;;;7.40;;
15408;SDS011;7803;48.130;13.788;2023-08-20T18:14:39;8.25;;;7.55;;
15408;SDS011;7803;48.130;13.788;2023-08-20T18:17:44;8.25;;;7.45;;
15408;SDS011;7803;48.130;13.788;2023-08-20T18:20:48;8.63;;;7.75;;
15408;SDS011;7803;48.130;13.788;2023-08-20T18:23:52;7.97;;;7.32;;
15408;SDS011;7803;48.130;13.788;2023-08-20T18:26:55;7.82;;;7.13;;